sensor_id;sensor_type;location;lat;lon;timestamp;temperature;humidity
24262;DHT22;12385;51.412;5.540;2022-07-24T00:01:35;21.10;98.30
24262;DHT22;12385;51.412;5.540;2022-07-24T00:04:02;21.00;98.40
24262;DHT22;12385;51.412;5.540;2022-07-24T00:06:28;21.00;98.50
24262;DHT22;12385;51.412;5.540;2022-07-24T00:08:53;21.00;98.60
24262;DHT22;12385;51.412;5.540;2022-07-24T00:11:19;20.90;98.70
24262;DHT22;12385;51.412;5.540;2022-07-24T00:13:46;20.90;98.90
24262;DHT22;12385;51.412;5.540;2022-07-24T00:16:12;20.90;99.10
24262;DHT22;12385;51.412;5.540;2022-07-24T00:18:37;20.80;99.10
24262;DHT22;12385;51.412;5.540;2022-07-24T00:21:03;20.70;99.30
24262;DHT22;12385;51.412;5.540;2022-07-24T00:23:29;20.60;99.40
24262;DHT22;12385;51.412;5.540;2022-07-24T00:25:55;20.60;99.60
24262;DHT22;12385;51.412;5.540;2022-07-24T00:28:21;20.60;99.70
24262;DHT22;12385;51.412;5.540;2022-07-24T00:30:47;20.60;99.90
24262;DHT22;12385;51.412;5.540;2022-07-24T00:33:12;20.60;99.90
24262;DHT22;12385;51.412;5.540;2022-07-24T00:35:38;20.50;99.90
24262;DHT22;12385;51.412;5.540;2022-07-24T00:38:04;20.50;99.90
24262;DHT22;12385;51.412;5.540;2022-07-24T00:40:30;20.50;99.90
24262;DHT22;12385;51.412;5.540;2022-07-24T00:42:56;20.40;99.90
24262;DHT22;12385;51.412;5.540;2022-07-24T00:45:23;20.40;99.90
24262;DHT22;12385;51.412;5.540;2022-07-24T00:47:48;20.40;99.90
24262;DHT22;12385;51.412;5.540;2022-07-24T00:50:14;20.30;99.90
24262;DHT22;12385;51.412;5.540;2022-07-24T00:52:39;20.30;99.90
24262;DHT22;12385;51.412;5.540;2022-07-24T00:55:06;20.20;99.90
24262;DHT22;12385;51.412;5.540;2022-07-24T00:57:31;20.10;99.90
24262;DHT22;12385;51.412;5.540;2022-07-24T00:59:57;20.10;99.90
24262;DHT22;12385;51.412;5.540;2022-07-24T01:02:24;20.00;99.90
24262;DHT22;12385;51.412;5.540;2022-07-24T01:04:50;19.90;99.90
24262;DHT22;12385;51.412;5.540;2022-07-24T01:07:16;19.90;99.90
24262;DHT22;12385;51.412;5.540;2022-07-24T01:09:42;19.90;99.90
24262;DHT22;12385;51.412;5.540;2022-07-24T01:12:09;19.80;99.90
24262;DHT22;12385;51.412;5.540;2022-07-24T01:14:34;19.80;99.90
24262;DHT22;12385;51.412;5.540;2022-07-24T01:17:01;19.80;99.90
24262;DHT22;12385;51.412;5.540;2022-07-24T01:19:26;19.70;99.90
24262;DHT22;12385;51.412;5.540;2022-07-24T01:21:53;19.70;99.90
24262;DHT22;12385;51.412;5.540;2022-07-24T01:24:19;19.70;99.90
24262;DHT22;12385;51.412;5.540;2022-07-24T01:26:45;19.70;99.90
24262;DHT22;12385;51.412;5.540;2022-07-24T01:29:12;19.70;99.90
24262;DHT22;12385;51.412;5.540;2022-07-24T01:31:38;19.70;99.90
24262;DHT22;12385;51.412;5.540;2022-07-24T01:34:03;19.70;99.90
24262;DHT22;12385;51.412;5.540;2022-07-24T01:36:29;19.70;99.90
24262;DHT22;12385;51.412;5.540;2022-07-24T01:38:55;19.70;99.90
24262;DHT22;12385;51.412;5.540;2022-07-24T01:41:20;19.70;99.90
24262;DHT22;12385;51.412;5.540;2022-07-24T01:43:46;19.70;99.90
24262;DHT22;12385;51.412;5.540;2022-07-24T01:46:12;19.70;99.90
24262;DHT22;12385;51.412;5.540;2022-07-24T01:48:39;19.70;99.90
24262;DHT22;12385;51.412;5.540;2022-07-24T01:51:05;19.60;99.90
24262;DHT22;12385;51.412;5.540;2022-07-24T01:53:32;19.60;99.90
24262;DHT22;12385;51.412;5.540;2022-07-24T01:55:57;19.50;99.90
24262;DHT22;12385;51.412;5.540;2022-07-24T01:58:23;19.50;99.90
24262;DHT22;12385;51.412;5.540;2022-07-24T02:00:50;19.40;99.90
24262;DHT22;12385;51.412;5.540;2022-07-24T02:03:19;19.40;99.90
24262;DHT22;12385;51.412;5.540;2022-07-24T02:05:45;19.40;99.90
24262;DHT22;12385;51.412;5.540;2022-07-24T02:08:10;19.30;99.90
24262;DHT22;12385;51.412;5.540;2022-07-24T02:10:36;19.30;99.90
24262;DHT22;12385;51.412;5.540;2022-07-24T02:13:02;19.20;99.90
24262;DHT22;12385;51.412;5.540;2022-07-24T02:15:28;19.20;99.90
24262;DHT22;12385;51.412;5.540;2022-07-24T02:17:56;19.10;99.90
24262;DHT22;12385;51.412;5.540;2022-07-24T02:20:22;19.10;99.90
24262;DHT22;12385;51.412;5.540;2022-07-24T02:22:47;19.10;99.90
24262;DHT22;12385;51.412;5.540;2022-07-24T02:25:14;19.10;99.90
24262;DHT22;12385;51.412;5.540;2022-07-24T02:27:40;19.00;99.90
24262;DHT22;12385;51.412;5.540;2022-07-24T02:30:08;19.00;99.90
24262;DHT22;12385;51.412;5.540;2022-07-24T02:32:34;18.90;99.90
24262;DHT22;12385;51.412;5.540;2022-07-24T02:35:00;18.90;99.90
24262;DHT22;12385;51.412;5.540;2022-07-24T02:37:25;18.90;99.90
24262;DHT22;12385;51.412;5.540;2022-07-24T02:39:51;18.90;99.90
24262;DHT22;12385;51.412;5.540;2022-07-24T02:42:16;18.90;99.90
24262;DHT22;12385;51.412;5.540;2022-07-24T02:44:42;18.80;99.90
24262;DHT22;12385;51.412;5.540;2022-07-24T02:47:08;18.80;99.90
24262;DHT22;12385;51.412;5.540;2022-07-24T02:49:33;18.80;99.90
24262;DHT22;12385;51.412;5.540;2022-07-24T02:52:01;18.70;99.90
24262;DHT22;12385;51.412;5.540;2022-07-24T02:54:27;18.70;99.90
24262;DHT22;12385;51.412;5.540;2022-07-24T02:56:52;18.60;99.90
24262;DHT22;12385;51.412;5.540;2022-07-24T02:59:18;18.60;99.90
24262;DHT22;12385;51.412;5.540;2022-07-24T03:01:43;18.50;99.90
24262;DHT22;12385;51.412;5.540;2022-07-24T03:04:09;18.40;99.90
24262;DHT22;12385;51.412;5.540;2022-07-24T03:06:35;18.40;99.90
24262;DHT22;12385;51.412;5.540;2022-07-24T03:09:01;18.30;99.90
24262;DHT22;12385;51.412;5.540;2022-07-24T03:11:27;18.20;99.90
24262;DHT22;12385;51.412;5.540;2022-07-24T03:13:53;18.20;99.90
24262;DHT22;12385;51.412;5.540;2022-07-24T03:16:18;18.10;99.90
24262;DHT22;12385;51.412;5.540;2022-07-24T03:18:44;18.10;99.90
24262;DHT22;12385;51.412;5.540;2022-07-24T03:21:13;18.10;99.90
24262;DHT22;12385;51.412;5.540;2022-07-24T03:23:39;18.00;99.90
24262;DHT22;12385;51.412;5.540;2022-07-24T03:26:05;18.00;99.90
24262;DHT22;12385;51.412;5.540;2022-07-24T03:28:30;18.00;99.90
24262;DHT22;12385;51.412;5.540;2022-07-24T03:30:56;18.00;99.90
24262;DHT22;12385;51.412;5.540;2022-07-24T03:33:22;18.00;99.90
24262;DHT22;12385;51.412;5.540;2022-07-24T03:35:47;18.00;99.90
24262;DHT22;12385;51.412;5.540;2022-07-24T03:38:13;18.00;99.90
24262;DHT22;12385;51.412;5.540;2022-07-24T03:40:38;18.00;99.90
24262;DHT22;12385;51.412;5.540;2022-07-24T03:43:04;18.00;99.90
24262;DHT22;12385;51.412;5.540;2022-07-24T03:45:34;18.00;99.90
24262;DHT22;12385;51.412;5.540;2022-07-24T03:47:59;18.00;99.90
24262;DHT22;12385;51.412;5.540;2022-07-24T03:50:25;18.00;99.90
24262;DHT22;12385;51.412;5.540;2022-07-24T03:52:51;17.90;99.90
24262;DHT22;12385;51.412;5.540;2022-07-24T03:55:17;17.90;99.90
24262;DHT22;12385;51.412;5.540;2022-07-24T03:57:42;17.90;99.90
24262;DHT22;12385;51.412;5.540;2022-07-24T04:00:08;17.90;99.90
24262;DHT22;12385;51.412;5.540;2022-07-24T04:02:35;17.90;99.90
24262;DHT22;12385;51.412;5.540;2022-07-24T04:05:00;17.90;99.90
24262;DHT22;12385;51.412;5.540;2022-07-24T04:07:26;17.90;99.90
24262;DHT22;12385;51.412;5.540;2022-07-24T04:09:51;17.90;99.90
24262;DHT22;12385;51.412;5.540;2022-07-24T04:12:17;18.00;99.90
24262;DHT22;12385;51.412;5.540;2022-07-24T04:14:43;17.90;99.90
24262;DHT22;12385;51.412;5.540;2022-07-24T04:17:08;17.90;99.90
24262;DHT22;12385;51.412;5.540;2022-07-24T04:19:34;17.90;99.90
24262;DHT22;12385;51.412;5.540;2022-07-24T04:22:00;17.90;99.90
24262;DHT22;12385;51.412;5.540;2022-07-24T04:24:25;17.90;99.90
24262;DHT22;12385;51.412;5.540;2022-07-24T04:26:51;17.90;99.90
24262;DHT22;12385;51.412;5.540;2022-07-24T04:29:17;17.90;99.90
24262;DHT22;12385;51.412;5.540;2022-07-24T04:31:42;17.90;99.90
24262;DHT22;12385;51.412;5.540;2022-07-24T04:34:08;17.80;99.90
24262;DHT22;12385;51.412;5.540;2022-07-24T04:36:33;17.80;99.90
24262;DHT22;12385;51.412;5.540;2022-07-24T04:38:59;17.80;99.90
24262;DHT22;12385;51.412;5.540;2022-07-24T04:41:25;17.80;99.90
24262;DHT22;12385;51.412;5.540;2022-07-24T04:43:50;17.70;99.90
24262;DHT22;12385;51.412;5.540;2022-07-24T04:46:17;17.80;99.90
24262;DHT22;12385;51.412;5.540;2022-07-24T04:48:43;17.70;99.90
24262;DHT22;12385;51.412;5.540;2022-07-24T04:51:08;17.70;99.90
24262;DHT22;12385;51.412;5.540;2022-07-24T04:53:34;17.70;99.90
24262;DHT22;12385;51.412;5.540;2022-07-24T04:56:00;17.70;99.90
24262;DHT22;12385;51.412;5.540;2022-07-24T04:58:26;17.80;99.90
24262;DHT22;12385;51.412;5.540;2022-07-24T05:00:52;17.70;99.90
24262;DHT22;12385;51.412;5.540;2022-07-24T05:03:18;17.80;99.90
24262;DHT22;12385;51.412;5.540;2022-07-24T05:05:44;17.80;99.90
24262;DHT22;12385;51.412;5.540;2022-07-24T05:08:10;17.80;99.90
24262;DHT22;12385;51.412;5.540;2022-07-24T05:10:35;17.80;99.90
24262;DHT22;12385;51.412;5.540;2022-07-24T05:13:01;17.80;99.90
24262;DHT22;12385;51.412;5.540;2022-07-24T05:15:26;17.90;99.90
24262;DHT22;12385;51.412;5.540;2022-07-24T05:17:52;17.90;99.90
24262;DHT22;12385;51.412;5.540;2022-07-24T05:20:18;17.90;99.90
24262;DHT22;12385;51.412;5.540;2022-07-24T05:22:44;17.90;99.90
24262;DHT22;12385;51.412;5.540;2022-07-24T05:25:09;17.90;99.90
24262;DHT22;12385;51.412;5.540;2022-07-24T05:27:35;18.00;99.90
24262;DHT22;12385;51.412;5.540;2022-07-24T05:30:00;18.00;99.90
24262;DHT22;12385;51.412;5.540;2022-07-24T05:32:26;18.10;99.90
24262;DHT22;12385;51.412;5.540;2022-07-24T05:34:52;18.10;99.90
24262;DHT22;12385;51.412;5.540;2022-07-24T05:37:17;18.10;99.90
24262;DHT22;12385;51.412;5.540;2022-07-24T05:39:43;18.20;99.90
24262;DHT22;12385;51.412;5.540;2022-07-24T05:42:08;18.20;99.90
24262;DHT22;12385;51.412;5.540;2022-07-24T05:44:34;18.30;99.90
24262;DHT22;12385;51.412;5.540;2022-07-24T05:47:00;18.40;99.90
24262;DHT22;12385;51.412;5.540;2022-07-24T05:49:25;18.40;99.90
24262;DHT22;12385;51.412;5.540;2022-07-24T05:51:51;18.50;99.90
24262;DHT22;12385;51.412;5.540;2022-07-24T05:54:17;18.60;99.90
24262;DHT22;12385;51.412;5.540;2022-07-24T05:56:42;18.60;99.90
24262;DHT22;12385;51.412;5.540;2022-07-24T05:59:08;18.70;99.90
24262;DHT22;12385;51.412;5.540;2022-07-24T06:01:34;18.80;99.90
24262;DHT22;12385;51.412;5.540;2022-07-24T06:03:59;18.90;99.90
24262;DHT22;12385;51.412;5.540;2022-07-24T06:06:25;18.90;99.90
24262;DHT22;12385;51.412;5.540;2022-07-24T06:08:50;19.00;99.90
24262;DHT22;12385;51.412;5.540;2022-07-24T06:11:16;19.10;99.90
24262;DHT22;12385;51.412;5.540;2022-07-24T06:13:43;19.20;99.90
24262;DHT22;12385;51.412;5.540;2022-07-24T06:16:08;19.30;99.90
24262;DHT22;12385;51.412;5.540;2022-07-24T06:18:34;19.30;99.90
24262;DHT22;12385;51.412;5.540;2022-07-24T06:21:00;19.40;99.90
24262;DHT22;12385;51.412;5.540;2022-07-24T06:23:25;19.40;99.90
24262;DHT22;12385;51.412;5.540;2022-07-24T06:25:51;19.50;99.90
24262;DHT22;12385;51.412;5.540;2022-07-24T06:28:16;19.60;99.90
24262;DHT22;12385;51.412;5.540;2022-07-24T06:30:42;19.70;99.90
24262;DHT22;12385;51.412;5.540;2022-07-24T06:33:08;19.80;99.90
24262;DHT22;12385;51.412;5.540;2022-07-24T06:35:33;19.80;99.90
24262;DHT22;12385;51.412;5.540;2022-07-24T06:37:59;19.90;99.90
24262;DHT22;12385;51.412;5.540;2022-07-24T06:40:28;19.90;99.90
24262;DHT22;12385;51.412;5.540;2022-07-24T06:42:54;19.90;99.90
24262;DHT22;12385;51.412;5.540;2022-07-24T06:45:20;20.10;99.90
24262;DHT22;12385;51.412;5.540;2022-07-24T06:47:45;20.10;99.90
24262;DHT22;12385;51.412;5.540;2022-07-24T06:50:12;20.20;99.90
24262;DHT22;12385;51.412;5.540;2022-07-24T06:52:38;20.20;99.90
24262;DHT22;12385;51.412;5.540;2022-07-24T06:55:04;20.30;99.90
24262;DHT22;12385;51.412;5.540;2022-07-24T06:57:30;20.40;99.90
24262;DHT22;12385;51.412;5.540;2022-07-24T06:59:56;20.40;99.90
24262;DHT22;12385;51.412;5.540;2022-07-24T07:02:22;20.50;99.90
24262;DHT22;12385;51.412;5.540;2022-07-24T07:04:48;20.50;99.90
24262;DHT22;12385;51.412;5.540;2022-07-24T07:07:14;20.60;99.90
24262;DHT22;12385;51.412;5.540;2022-07-24T07:09:43;20.70;99.90
24262;DHT22;12385;51.412;5.540;2022-07-24T07:12:09;20.70;99.90
24262;DHT22;12385;51.412;5.540;2022-07-24T07:14:35;20.80;99.90
24262;DHT22;12385;51.412;5.540;2022-07-24T07:17:02;20.90;99.90
24262;DHT22;12385;51.412;5.540;2022-07-24T07:19:27;21.00;99.90
24262;DHT22;12385;51.412;5.540;2022-07-24T07:21:53;21.10;99.90
24262;DHT22;12385;51.412;5.540;2022-07-24T07:24:19;21.20;99.90
24262;DHT22;12385;51.412;5.540;2022-07-24T07:26:44;21.20;99.90
24262;DHT22;12385;51.412;5.540;2022-07-24T07:29:10;21.30;99.90
24262;DHT22;12385;51.412;5.540;2022-07-24T07:31:36;21.30;99.90
24262;DHT22;12385;51.412;5.540;2022-07-24T07:34:01;21.40;99.90
24262;DHT22;12385;51.412;5.540;2022-07-24T07:36:27;21.40;99.90
24262;DHT22;12385;51.412;5.540;2022-07-24T07:38:52;21.50;99.90
24262;DHT22;12385;51.412;5.540;2022-07-24T07:41:18;21.60;99.90
24262;DHT22;12385;51.412;5.540;2022-07-24T07:43:45;21.70;99.90
24262;DHT22;12385;51.412;5.540;2022-07-24T07:46:13;21.70;99.90
24262;DHT22;12385;51.412;5.540;2022-07-24T07:48:38;21.80;99.90
24262;DHT22;12385;51.412;5.540;2022-07-24T07:51:04;21.90;99.90
24262;DHT22;12385;51.412;5.540;2022-07-24T07:53:29;22.00;99.90
24262;DHT22;12385;51.412;5.540;2022-07-24T07:55:56;22.10;99.90
24262;DHT22;12385;51.412;5.540;2022-07-24T07:58:22;22.10;99.90
24262;DHT22;12385;51.412;5.540;2022-07-24T08:00:52;22.20;99.90
24262;DHT22;12385;51.412;5.540;2022-07-24T08:03:18;22.30;99.80
24262;DHT22;12385;51.412;5.540;2022-07-24T08:05:43;22.40;99.10
24262;DHT22;12385;51.412;5.540;2022-07-24T08:08:09;22.40;98.50
24262;DHT22;12385;51.412;5.540;2022-07-24T08:10:51;22.50;98.00
24262;DHT22;12385;51.412;5.540;2022-07-24T08:13:17;22.60;97.40
24262;DHT22;12385;51.412;5.540;2022-07-24T08:15:44;22.70;97.10
24262;DHT22;12385;51.412;5.540;2022-07-24T08:18:09;22.70;96.90
24262;DHT22;12385;51.412;5.540;2022-07-24T08:20:35;22.80;96.20
24262;DHT22;12385;51.412;5.540;2022-07-24T08:23:00;22.80;96.10
24262;DHT22;12385;51.412;5.540;2022-07-24T08:25:27;22.90;95.90
24262;DHT22;12385;51.412;5.540;2022-07-24T08:27:52;23.00;95.30
24262;DHT22;12385;51.412;5.540;2022-07-24T08:30:18;23.10;94.80
24262;DHT22;12385;51.412;5.540;2022-07-24T08:32:44;23.10;94.80
24262;DHT22;12385;51.412;5.540;2022-07-24T08:35:11;23.20;94.40
24262;DHT22;12385;51.412;5.540;2022-07-24T08:37:38;23.20;94.70
24262;DHT22;12385;51.412;5.540;2022-07-24T08:40:05;23.30;94.30
24262;DHT22;12385;51.412;5.540;2022-07-24T08:42:31;23.40;94.70
24262;DHT22;12385;51.412;5.540;2022-07-24T08:44:57;23.40;94.20
24262;DHT22;12385;51.412;5.540;2022-07-24T08:47:23;23.50;93.40
24262;DHT22;12385;51.412;5.540;2022-07-24T08:49:53;23.60;93.20
24262;DHT22;12385;51.412;5.540;2022-07-24T08:52:21;23.60;92.50
24262;DHT22;12385;51.412;5.540;2022-07-24T08:54:47;23.70;92.20
24262;DHT22;12385;51.412;5.540;2022-07-24T08:57:14;23.80;91.80
24262;DHT22;12385;51.412;5.540;2022-07-24T08:59:40;23.80;91.50
24262;DHT22;12385;51.412;5.540;2022-07-24T09:02:06;23.90;91.30
24262;DHT22;12385;51.412;5.540;2022-07-24T09:04:44;24.00;91.10
24262;DHT22;12385;51.412;5.540;2022-07-24T09:07:15;24.10;90.80
24262;DHT22;12385;51.412;5.540;2022-07-24T09:09:43;24.10;90.70
24262;DHT22;12385;51.412;5.540;2022-07-24T09:14:44;24.30;90.60
24262;DHT22;12385;51.412;5.540;2022-07-24T09:17:16;24.40;89.40
24262;DHT22;12385;51.412;5.540;2022-07-24T09:20:00;24.50;88.40
24262;DHT22;12385;51.412;5.540;2022-07-24T09:22:37;24.60;87.70
24262;DHT22;12385;51.412;5.540;2022-07-24T09:25:17;24.60;88.50
24262;DHT22;12385;51.412;5.540;2022-07-24T09:30:33;24.70;87.90
24262;DHT22;12385;51.412;5.540;2022-07-24T09:33:01;24.80;86.30
24262;DHT22;12385;51.412;5.540;2022-07-24T09:35:35;24.80;86.40
24262;DHT22;12385;51.412;5.540;2022-07-24T09:38:04;24.80;86.90
24262;DHT22;12385;51.412;5.540;2022-07-24T09:40:32;24.90;86.50
24262;DHT22;12385;51.412;5.540;2022-07-24T09:43:15;24.90;85.70
24262;DHT22;12385;51.412;5.540;2022-07-24T09:46:09;25.00;85.50
24262;DHT22;12385;51.412;5.540;2022-07-24T09:48:40;25.10;86.20
24262;DHT22;12385;51.412;5.540;2022-07-24T09:51:17;25.20;84.70
24262;DHT22;12385;51.412;5.540;2022-07-24T09:53:44;25.30;84.30
24262;DHT22;12385;51.412;5.540;2022-07-24T09:56:13;25.40;84.00
24262;DHT22;12385;51.412;5.540;2022-07-24T10:01:12;25.60;84.00
24262;DHT22;12385;51.412;5.540;2022-07-24T10:03:40;25.70;83.30
24262;DHT22;12385;51.412;5.540;2022-07-24T10:06:14;25.70;82.00
24262;DHT22;12385;51.412;5.540;2022-07-24T10:08:42;25.80;81.10
24262;DHT22;12385;51.412;5.540;2022-07-24T10:11:09;25.80;80.90
24262;DHT22;12385;51.412;5.540;2022-07-24T10:13:35;25.90;79.50
24262;DHT22;12385;51.412;5.540;2022-07-24T10:18:55;26.00;81.90
24262;DHT22;12385;51.412;5.540;2022-07-24T10:26:41;26.30;79.90
24262;DHT22;12385;51.412;5.540;2022-07-24T10:37:13;26.60;76.70
24262;DHT22;12385;51.412;5.540;2022-07-24T10:42:13;26.80;77.90
24262;DHT22;12385;51.412;5.540;2022-07-24T10:44:38;26.90;77.00
24262;DHT22;12385;51.412;5.540;2022-07-24T10:47:09;26.90;76.70
24262;DHT22;12385;51.412;5.540;2022-07-24T10:49:43;27.00;77.60
24262;DHT22;12385;51.412;5.540;2022-07-24T10:52:11;27.00;76.80
24262;DHT22;12385;51.412;5.540;2022-07-24T10:54:38;27.00;76.20
24262;DHT22;12385;51.412;5.540;2022-07-24T10:57:04;27.10;74.70
24262;DHT22;12385;51.412;5.540;2022-07-24T10:59:38;27.30;73.50
24262;DHT22;12385;51.412;5.540;2022-07-24T11:02:36;27.40;73.70
24262;DHT22;12385;51.412;5.540;2022-07-24T11:05:25;27.60;71.50
24262;DHT22;12385;51.412;5.540;2022-07-24T11:10:54;27.90;71.30
24262;DHT22;12385;51.412;5.540;2022-07-24T11:18:41;28.20;69.80
24262;DHT22;12385;51.412;5.540;2022-07-24T11:21:08;28.30;68.10
24262;DHT22;12385;51.412;5.540;2022-07-24T11:23:34;28.40;68.20
24262;DHT22;12385;51.412;5.540;2022-07-24T11:29:19;28.60;69.30
24262;DHT22;12385;51.412;5.540;2022-07-24T11:31:53;28.60;68.00
24262;DHT22;12385;51.412;5.540;2022-07-24T11:34:20;28.70;66.90
24262;DHT22;12385;51.412;5.540;2022-07-24T11:36:48;28.70;66.80
24262;DHT22;12385;51.412;5.540;2022-07-24T11:39:15;28.70;64.60
24262;DHT22;12385;51.412;5.540;2022-07-24T11:41:47;28.80;66.30
24262;DHT22;12385;51.412;5.540;2022-07-24T11:44:14;29.00;65.00
24262;DHT22;12385;51.412;5.540;2022-07-24T11:46:41;29.10;63.70
24262;DHT22;12385;51.412;5.540;2022-07-24T11:49:09;29.10;66.00
24262;DHT22;12385;51.412;5.540;2022-07-24T11:51:42;29.30;65.80
24262;DHT22;12385;51.412;5.540;2022-07-24T11:54:10;29.30;67.00
24262;DHT22;12385;51.412;5.540;2022-07-24T11:56:36;29.50;67.00
24262;DHT22;12385;51.412;5.540;2022-07-24T11:59:02;29.60;65.20
24262;DHT22;12385;51.412;5.540;2022-07-24T12:01:28;29.70;64.20
24262;DHT22;12385;51.412;5.540;2022-07-24T12:03:57;29.70;63.50
24262;DHT22;12385;51.412;5.540;2022-07-24T12:06:22;29.70;63.80
24262;DHT22;12385;51.412;5.540;2022-07-24T12:08:48;29.90;63.70
24262;DHT22;12385;51.412;5.540;2022-07-24T12:11:21;30.00;62.80
24262;DHT22;12385;51.412;5.540;2022-07-24T12:13:48;30.00;61.00
24262;DHT22;12385;51.412;5.540;2022-07-24T12:16:26;30.10;60.20
24262;DHT22;12385;51.412;5.540;2022-07-24T12:18:51;30.20;59.50
24262;DHT22;12385;51.412;5.540;2022-07-24T12:21:17;30.30;60.00
24262;DHT22;12385;51.412;5.540;2022-07-24T12:23:46;30.40;59.50
24262;DHT22;12385;51.412;5.540;2022-07-24T12:26:12;30.50;59.70
24262;DHT22;12385;51.412;5.540;2022-07-24T12:28:38;30.70;59.00
24262;DHT22;12385;51.412;5.540;2022-07-24T12:31:07;30.80;58.00
24262;DHT22;12385;51.412;5.540;2022-07-24T12:33:36;30.80;57.20
24262;DHT22;12385;51.412;5.540;2022-07-24T12:36:05;30.90;57.50
24262;DHT22;12385;51.412;5.540;2022-07-24T12:38:50;30.90;57.60
24262;DHT22;12385;51.412;5.540;2022-07-24T12:41:17;31.00;56.90
24262;DHT22;12385;51.412;5.540;2022-07-24T12:43:49;31.20;57.10
24262;DHT22;12385;51.412;5.540;2022-07-24T12:46:17;31.40;57.90
24262;DHT22;12385;51.412;5.540;2022-07-24T12:51:59;31.90;55.70
24262;DHT22;12385;51.412;5.540;2022-07-24T12:54:26;32.00;55.40
24262;DHT22;12385;51.412;5.540;2022-07-24T12:56:54;32.10;56.00
24262;DHT22;12385;51.412;5.540;2022-07-24T12:59:31;32.20;57.30
24262;DHT22;12385;51.412;5.540;2022-07-24T13:02:08;32.40;55.20
24262;DHT22;12385;51.412;5.540;2022-07-24T13:04:54;32.70;53.40
24262;DHT22;12385;51.412;5.540;2022-07-24T13:07:24;33.00;52.20
24262;DHT22;12385;51.412;5.540;2022-07-24T13:09:52;33.20;51.50
24262;DHT22;12385;51.412;5.540;2022-07-24T13:12:19;33.30;51.30
24262;DHT22;12385;51.412;5.540;2022-07-24T13:14:45;33.60;51.40
24262;DHT22;12385;51.412;5.540;2022-07-24T13:17:16;33.80;50.50
24262;DHT22;12385;51.412;5.540;2022-07-24T13:19:43;34.20;49.60
24262;DHT22;12385;51.412;5.540;2022-07-24T13:22:10;34.60;48.50
24262;DHT22;12385;51.412;5.540;2022-07-24T13:24:36;35.00;47.70
24262;DHT22;12385;51.412;5.540;2022-07-24T13:27:03;35.30;46.70
24262;DHT22;12385;51.412;5.540;2022-07-24T13:29:29;35.70;46.20
24262;DHT22;12385;51.412;5.540;2022-07-24T13:31:55;35.80;45.70
24262;DHT22;12385;51.412;5.540;2022-07-24T13:34:22;36.10;45.00
24262;DHT22;12385;51.412;5.540;2022-07-24T13:36:47;36.20;46.00
24262;DHT22;12385;51.412;5.540;2022-07-24T13:39:14;36.40;45.40
24262;DHT22;12385;51.412;5.540;2022-07-24T13:41:40;36.50;43.50
24262;DHT22;12385;51.412;5.540;2022-07-24T13:44:05;36.60;43.20
24262;DHT22;12385;51.412;5.540;2022-07-24T13:46:32;36.80;43.40
24262;DHT22;12385;51.412;5.540;2022-07-24T13:49:00;36.90;43.40
24262;DHT22;12385;51.412;5.540;2022-07-24T13:51:26;37.00;43.00
24262;DHT22;12385;51.412;5.540;2022-07-24T13:53:52;37.10;42.50
24262;DHT22;12385;51.412;5.540;2022-07-24T13:56:18;37.40;41.60
24262;DHT22;12385;51.412;5.540;2022-07-24T13:58:44;37.70;41.70
24262;DHT22;12385;51.412;5.540;2022-07-24T14:01:10;37.90;40.80
24262;DHT22;12385;51.412;5.540;2022-07-24T14:03:38;38.20;40.40
24262;DHT22;12385;51.412;5.540;2022-07-24T14:06:05;38.20;40.10
24262;DHT22;12385;51.412;5.540;2022-07-24T14:08:30;38.20;40.20
24262;DHT22;12385;51.412;5.540;2022-07-24T14:10:56;38.40;39.20
24262;DHT22;12385;51.412;5.540;2022-07-24T14:13:22;38.70;39.00
24262;DHT22;12385;51.412;5.540;2022-07-24T14:15:48;38.90;38.20
24262;DHT22;12385;51.412;5.540;2022-07-24T14:18:14;39.00;37.70
24262;DHT22;12385;51.412;5.540;2022-07-24T14:20:39;39.10;37.40
24262;DHT22;12385;51.412;5.540;2022-07-24T14:23:05;39.20;37.30
24262;DHT22;12385;51.412;5.540;2022-07-24T14:25:31;39.40;37.20
24262;DHT22;12385;51.412;5.540;2022-07-24T14:27:57;39.70;37.90
24262;DHT22;12385;51.412;5.540;2022-07-24T14:30:23;39.90;37.70
24262;DHT22;12385;51.412;5.540;2022-07-24T14:32:49;40.10;36.80
24262;DHT22;12385;51.412;5.540;2022-07-24T14:35:15;40.10;36.50
24262;DHT22;12385;51.412;5.540;2022-07-24T14:37:40;40.30;36.80
24262;DHT22;12385;51.412;5.540;2022-07-24T14:40:07;40.50;36.40
24262;DHT22;12385;51.412;5.540;2022-07-24T14:42:33;40.50;36.10
24262;DHT22;12385;51.412;5.540;2022-07-24T14:44:59;40.40;35.40
24262;DHT22;12385;51.412;5.540;2022-07-24T14:47:26;40.50;35.00
24262;DHT22;12385;51.412;5.540;2022-07-24T14:49:52;40.70;35.20
24262;DHT22;12385;51.412;5.540;2022-07-24T14:52:17;40.90;35.70
24262;DHT22;12385;51.412;5.540;2022-07-24T14:54:44;41.00;35.40
24262;DHT22;12385;51.412;5.540;2022-07-24T14:57:11;41.10;35.20
24262;DHT22;12385;51.412;5.540;2022-07-24T14:59:37;41.00;35.50
24262;DHT22;12385;51.412;5.540;2022-07-24T15:02:02;41.00;34.50
24262;DHT22;12385;51.412;5.540;2022-07-24T15:04:28;41.10;34.50
24262;DHT22;12385;51.412;5.540;2022-07-24T15:06:53;41.40;33.80
24262;DHT22;12385;51.412;5.540;2022-07-24T15:09:19;41.60;33.30
24262;DHT22;12385;51.412;5.540;2022-07-24T15:11:44;41.70;33.70
24262;DHT22;12385;51.412;5.540;2022-07-24T15:14:10;41.80;33.10
24262;DHT22;12385;51.412;5.540;2022-07-24T15:16:36;41.70;33.00
24262;DHT22;12385;51.412;5.540;2022-07-24T15:19:01;41.70;33.00
24262;DHT22;12385;51.412;5.540;2022-07-24T15:21:27;41.60;33.60
24262;DHT22;12385;51.412;5.540;2022-07-24T15:23:53;41.60;34.00
24262;DHT22;12385;51.412;5.540;2022-07-24T15:26:18;41.60;33.20
24262;DHT22;12385;51.412;5.540;2022-07-24T15:28:44;41.50;33.00
24262;DHT22;12385;51.412;5.540;2022-07-24T15:31:09;41.60;32.80
24262;DHT22;12385;51.412;5.540;2022-07-24T15:33:35;41.60;32.10
24262;DHT22;12385;51.412;5.540;2022-07-24T15:36:01;41.80;33.60
24262;DHT22;12385;51.412;5.540;2022-07-24T15:38:26;42.10;33.10
24262;DHT22;12385;51.412;5.540;2022-07-24T15:40:52;42.40;32.10
24262;DHT22;12385;51.412;5.540;2022-07-24T15:43:18;42.60;31.40
24262;DHT22;12385;51.412;5.540;2022-07-24T15:45:43;42.50;31.50
24262;DHT22;12385;51.412;5.540;2022-07-24T15:48:09;42.50;31.70
24262;DHT22;12385;51.412;5.540;2022-07-24T15:50:34;42.70;32.20
24262;DHT22;12385;51.412;5.540;2022-07-24T15:53:00;42.90;31.00
24262;DHT22;12385;51.412;5.540;2022-07-24T15:55:26;43.10;30.30
24262;DHT22;12385;51.412;5.540;2022-07-24T15:57:51;43.00;30.00
24262;DHT22;12385;51.412;5.540;2022-07-24T16:00:17;42.80;29.90
24262;DHT22;12385;51.412;5.540;2022-07-24T16:02:43;42.60;30.00
24262;DHT22;12385;51.412;5.540;2022-07-24T16:05:09;42.90;30.00
24262;DHT22;12385;51.412;5.540;2022-07-24T16:07:35;43.10;30.20
24262;DHT22;12385;51.412;5.540;2022-07-24T16:10:01;43.40;29.80